createdAt,value
2019-01-23T00:01:08.582Z,45.13
2019-01-23T00:03:44.457Z,42.97
2019-01-23T00:06:14.443Z,44.47
2019-01-23T00:08:44.249Z,43.17
2019-01-23T00:11:14.118Z,42.67
2019-01-23T00:13:43.939Z,41.70
2019-01-23T00:16:14.083Z,42.17
2019-01-23T00:18:44.091Z,43.03
2019-01-23T00:21:17.708Z,42.93
2019-01-23T00:23:49.177Z,43.93
2019-01-23T00:26:18.974Z,42.97
2019-01-23T00:28:48.796Z,43.73
2019-01-23T00:31:20.083Z,43.90
2019-01-23T00:33:50.012Z,44.17
2019-01-23T00:36:20.006Z,44.17
2019-01-23T00:38:49.887Z,46.80
2019-01-23T00:41:19.685Z,44.13
2019-01-23T00:43:50.188Z,43.73
2019-01-23T00:46:20.187Z,44.63
2019-01-23T00:48:49.986Z,43.13
2019-01-23T00:51:19.766Z,42.73
2019-01-23T00:53:49.741Z,42.33
2019-01-23T00:56:23.759Z,41.30
2019-01-23T00:58:55.191Z,40.53
2019-01-23T01:01:35.959Z,38.93
2019-01-23T01:04:13.527Z,39.43
2019-01-23T01:06:53.286Z,39.63
2019-01-23T01:09:23.009Z,37.67
2019-01-23T01:11:57.634Z,35.60
2019-01-23T01:14:43.267Z,36.70
2019-01-23T01:17:21.396Z,35.83
2019-01-23T01:20:02.403Z,35.97
2019-01-23T01:22:50.215Z,36.80
2019-01-23T01:25:33.933Z,37.10
2019-01-23T01:28:12.805Z,39.63
2019-01-23T01:30:44.357Z,37.13
2019-01-23T01:33:16.005Z,38.27
2019-01-23T01:35:45.906Z,36.43
2019-01-23T01:38:23.354Z,37.30
2019-01-23T01:41:09.975Z,36.70
2019-01-23T01:43:52.519Z,35.87
2019-01-23T01:46:25.525Z,36.80
2019-01-23T01:49:03.236Z,36.37
2019-01-23T01:51:54.286Z,36.27
2019-01-23T01:54:39.170Z,36.43
2019-01-23T01:57:18.577Z,37.03
2019-01-23T01:59:51.907Z,36.27
2019-01-23T02:02:35.144Z,38.50
2019-01-23T02:05:10.586Z,38.13
2019-01-23T02:07:44.768Z,38.17
2019-01-23T02:10:30.608Z,37.63
2019-01-23T02:13:11.265Z,37.63
2019-01-23T02:15:49.216Z,39.27
2019-01-23T02:18:30.883Z,39.27
2019-01-23T02:21:03.522Z,36.50
2019-01-23T02:23:39.757Z,37.50
2019-01-23T02:26:12.215Z,38.03
2019-01-23T02:29:12.067Z,37.03
2019-01-23T02:32:01.132Z,38.40
2019-01-23T02:34:54.686Z,39.87
2019-01-23T02:37:31.951Z,38.60
2019-01-23T02:40:04.303Z,39.03
2019-01-23T02:42:34.119Z,39.53
2019-01-23T02:45:10.103Z,40.73
2019-01-23T02:47:40.381Z,40.80
2019-01-23T02:50:39.961Z,41.03
2019-01-23T02:53:19.020Z,40.73
2019-01-23T02:55:51.053Z,41.27
2019-01-23T02:58:41.082Z,42.17
2019-01-23T03:01:10.882Z,39.60
2019-01-23T03:03:42.338Z,40.13
2019-01-23T03:06:12.314Z,41.23
2019-01-23T03:08:42.152Z,41.27
2019-01-23T03:11:13.023Z,41.28
2019-01-23T03:13:44.378Z,40.60
2019-01-23T03:16:23.649Z,41.27
2019-01-23T03:19:02.681Z,41.73
2019-01-23T03:21:33.276Z,40.67
2019-01-23T03:24:25.338Z,40.10
2019-01-23T03:26:56.788Z,40.00
2019-01-23T03:29:30.361Z,41.57
2019-01-23T03:32:00.186Z,40.97
2019-01-23T03:34:29.978Z,40.53
2019-01-23T03:37:01.475Z,40.00
2019-01-23T03:39:31.965Z,40.50
2019-01-23T03:42:02.475Z,40.47
2019-01-23T03:44:32.329Z,41.40
2019-01-23T03:47:02.140Z,41.10
2019-01-23T03:49:31.859Z,42.63
2019-01-23T03:52:01.715Z,42.03
2019-01-23T03:54:31.510Z,42.97
2019-01-23T03:57:01.462Z,41.90
2019-01-23T03:59:32.466Z,42.87
2019-01-23T04:02:06.624Z,41.53
2019-01-23T04:04:52.393Z,42.33
2019-01-23T04:07:26.782Z,41.07
2019-01-23T04:09:57.294Z,42.90
2019-01-23T04:12:27.667Z,42.90
2019-01-23T04:15:03.875Z,42.93
2019-01-23T04:17:36.738Z,42.70
2019-01-23T04:20:28.338Z,41.37
2019-01-23T04:23:04.053Z,40.77
2019-01-23T04:25:47.525Z,40.93
2019-01-23T04:28:25.440Z,42.30
2019-01-23T04:31:04.168Z,40.70
2019-01-23T04:33:39.552Z,41.93
2019-01-23T04:36:18.635Z,41.57
2019-01-23T04:38:50.980Z,40.00
2019-01-23T04:41:31.686Z,42.90
2019-01-23T04:44:15.554Z,39.43
2019-01-23T04:46:48.053Z,38.73
2019-01-23T04:49:46.581Z,38.37
2019-01-23T04:52:27.960Z,35.77
2019-01-23T04:58:01.392Z,34.73
2019-01-23T05:00:41.084Z,35.83
2019-01-23T05:03:19.285Z,35.07
2019-01-23T05:05:58.248Z,35.70
2019-01-23T05:08:56.173Z,36.60
2019-01-23T05:15:14.126Z,38.83
2019-01-23T05:30:22.013Z,35.47
2019-01-23T05:45:26.653Z,46.60
2019-01-23T05:48:10.083Z,40.87
2019-01-23T05:50:39.962Z,33.10
2019-01-23T05:53:10.331Z,30.63
2019-01-23T05:55:40.283Z,28.53
2019-01-23T05:58:10.265Z,26.60
2019-01-23T06:00:40.078Z,25.23
2019-01-23T06:03:09.864Z,24.23
2019-01-23T06:05:39.589Z,26.23
2019-01-23T06:08:09.442Z,25.90
2019-01-23T06:10:46.926Z,25.20
2019-01-23T06:13:24.218Z,24.57
2019-01-23T06:15:54.185Z,25.77
2019-01-23T06:18:24.160Z,26.67
2019-01-23T06:20:55.588Z,25.63
2019-01-23T06:23:27.197Z,27.00
2019-01-23T06:25:57.047Z,26.67
2019-01-23T06:28:26.884Z,27.43
2019-01-23T06:30:56.679Z,27.33
2019-01-23T06:33:26.569Z,26.97
2019-01-23T06:35:56.386Z,39.53
2019-01-23T06:38:26.182Z,39.03
2019-01-23T06:40:56.248Z,28.23
2019-01-23T06:43:26.061Z,27.23
2019-01-23T06:45:56.080Z,26.93
2019-01-23T06:48:27.871Z,27.93
2019-01-23T06:51:10.973Z,26.70
2019-01-23T06:53:40.844Z,27.30
2019-01-23T07:03:02.994Z,28.33
2019-01-23T07:05:36.919Z,29.10
2019-01-23T07:08:26.066Z,29.23
2019-01-23T07:11:09.031Z,29.47
2019-01-23T07:13:45.738Z,31.13
2019-01-23T07:16:30.112Z,30.43
2019-01-23T07:19:18.844Z,30.53
2019-01-23T07:22:04.959Z,29.50
2019-01-23T07:24:39.956Z,28.07
2019-01-23T07:27:36.220Z,26.50
2019-01-23T07:30:33.440Z,26.43
2019-01-23T07:33:35.405Z,24.73
2019-01-23T07:36:11.461Z,25.07
2019-01-23T07:41:57.068Z,26.80
2019-01-23T07:44:34.051Z,25.97
2019-01-23T07:47:19.597Z,25.77
2019-01-23T07:53:15.801Z,26.33
2019-01-23T07:58:46.252Z,26.37
2019-01-23T08:01:39.162Z,38.03
2019-01-23T08:04:16.890Z,25.60
2019-01-23T08:06:56.380Z,26.10
2019-01-23T08:09:33.991Z,27.03
2019-01-23T08:12:14.287Z,26.97
2019-01-23T08:14:59.811Z,26.37
2019-01-23T08:17:33.152Z,27.57
2019-01-23T08:20:09.722Z,26.40
2019-01-23T08:22:39.737Z,27.17
2019-01-23T08:25:09.384Z,27.63
2019-01-23T08:27:40.851Z,26.27
2019-01-23T08:30:19.817Z,28.30
2019-01-23T08:32:49.480Z,28.80
2019-01-23T08:35:20.158Z,28.90
2019-01-23T08:37:50.405Z,28.50
2019-01-23T08:40:20.243Z,27.07
2019-01-23T08:42:52.619Z,27.57
2019-01-23T08:45:22.367Z,28.90
2019-01-23T08:47:52.349Z,27.87
2019-01-23T08:50:40.720Z,28.53
2019-01-23T08:53:14.633Z,27.33
2019-01-23T08:55:44.504Z,28.40
2019-01-23T08:58:20.077Z,30.57
2019-01-23T09:00:51.542Z,28.97
2019-01-23T09:03:21.265Z,29.53
2019-01-23T09:05:51.632Z,28.53
2019-01-23T09:08:21.455Z,28.87
2019-01-23T09:10:51.259Z,28.10
2019-01-23T09:13:21.242Z,29.13
2019-01-23T09:15:51.081Z,29.73
2019-01-23T09:18:34.753Z,30.17
2019-01-23T09:21:04.597Z,30.23
2019-01-23T09:23:34.382Z,30.17
2019-01-23T09:26:04.193Z,37.87
2019-01-23T09:28:34.386Z,32.10
2019-01-23T09:31:09.671Z,31.30
2019-01-23T09:33:42.533Z,30.13
2019-01-23T09:36:28.809Z,31.10
2019-01-23T09:39:21.160Z,31.37
2019-01-23T09:42:29.017Z,29.97
2019-01-23T09:45:25.099Z,29.53
2019-01-23T09:48:15.623Z,30.60
2019-01-23T09:51:14.688Z,30.63
2019-01-23T09:53:49.529Z,31.13
2019-01-23T09:56:20.396Z,31.00
2019-01-23T09:58:50.105Z,31.77
2019-01-23T10:01:19.961Z,30.63
2019-01-23T10:03:53.234Z,31.97
2019-01-23T10:06:23.069Z,31.23
2019-01-23T10:08:52.905Z,29.87
2019-01-23T10:11:23.200Z,29.87
2019-01-23T10:13:53.485Z,29.83
2019-01-23T10:16:23.361Z,52.67
2019-01-23T10:18:56.129Z,33.57
2019-01-23T10:21:24.727Z,28.73
2019-01-23T10:23:54.932Z,30.00
2019-01-23T10:26:24.845Z,28.47
2019-01-23T10:28:54.849Z,28.90
2019-01-23T10:31:25.620Z,28.23
2019-01-23T10:33:55.611Z,28.43
2019-01-23T10:36:25.502Z,27.90
2019-01-23T10:38:55.201Z,28.73
2019-01-23T10:41:25.578Z,29.07
2019-01-23T10:43:55.296Z,28.50
2019-01-23T10:46:25.306Z,29.23
2019-01-23T10:48:55.948Z,28.80
2019-01-23T10:51:25.795Z,27.37
2019-01-23T10:53:55.620Z,28.97
2019-01-23T10:56:25.569Z,29.80
2019-01-23T10:58:55.453Z,28.87
2019-01-23T11:01:25.191Z,29.70
2019-01-23T11:03:55.231Z,28.83
2019-01-23T11:06:25.211Z,29.17
2019-01-23T11:08:55.128Z,29.47
2019-01-23T11:11:25.147Z,28.20
2019-01-23T11:13:54.942Z,41.77
2019-01-23T11:16:25.841Z,37.93
2019-01-23T11:18:55.508Z,30.30
2019-01-23T11:21:25.950Z,30.43
2019-01-23T11:23:55.772Z,29.57
2019-01-23T11:26:25.501Z,28.90
2019-01-23T11:28:55.347Z,29.73
2019-01-23T11:31:26.988Z,29.83
2019-01-23T11:33:56.792Z,29.37
2019-01-23T11:36:26.628Z,28.63
2019-01-23T11:38:56.412Z,31.03
2019-01-23T11:41:26.376Z,31.83
2019-01-23T11:43:56.344Z,31.23
2019-01-23T11:46:26.213Z,28.77
2019-01-23T11:48:56.016Z,28.73
2019-01-23T11:51:26.810Z,29.40
2019-01-23T11:53:58.591Z,29.57
2019-01-23T11:56:28.674Z,30.67
2019-01-23T11:58:58.485Z,29.83
2019-01-23T12:01:28.310Z,28.93
2019-01-23T12:03:58.244Z,30.03
2019-01-23T12:06:28.072Z,29.90
2019-01-23T12:08:57.902Z,30.13
2019-01-23T12:11:27.685Z,29.67
2019-01-23T12:13:57.529Z,29.23
2019-01-23T12:16:27.480Z,28.60
2019-01-23T12:18:57.176Z,28.43
2019-01-23T12:21:27.031Z,28.17
2019-01-23T12:23:58.413Z,67.37
2019-01-23T12:26:28.253Z,30.10
2019-01-23T12:29:00.764Z,27.60
2019-01-23T12:31:34.861Z,27.63
2019-01-23T12:34:02.467Z,28.97
2019-01-23T12:36:32.259Z,29.00
2019-01-23T12:39:02.100Z,28.03
2019-01-23T12:41:31.871Z,29.47
2019-01-23T12:44:01.682Z,29.43
2019-01-23T12:46:31.525Z,29.17
2019-01-23T12:49:02.934Z,29.27
2019-01-23T12:51:32.807Z,29.37
2019-01-23T12:54:02.611Z,29.37
2019-01-23T12:56:32.374Z,29.47
2019-01-23T12:59:02.308Z,26.90
2019-01-23T13:01:31.946Z,26.60
2019-01-23T13:04:01.764Z,27.87
2019-01-23T13:06:31.610Z,27.50
2019-01-23T13:09:01.520Z,26.57
2019-01-23T13:11:31.390Z,27.00
2019-01-23T13:14:01.167Z,26.17
2019-01-23T13:16:30.959Z,42.73
2019-01-23T13:19:00.798Z,26.90
2019-01-23T13:21:30.546Z,27.77
2019-01-23T13:24:00.341Z,27.23
2019-01-23T13:26:32.178Z,26.50
2019-01-23T13:29:01.957Z,28.27
2019-01-23T13:31:31.803Z,27.67
2019-01-23T13:34:01.639Z,28.00
2019-01-23T13:36:31.481Z,29.23
2019-01-23T13:39:01.202Z,28.23
2019-01-23T13:41:31.127Z,28.30
2019-01-23T13:44:02.409Z,27.83
2019-01-23T13:46:32.246Z,28.47
2019-01-23T13:49:02.045Z,30.83
2019-01-23T13:51:31.787Z,30.83
2019-01-23T13:54:02.445Z,30.53
2019-01-23T13:56:32.278Z,31.03
2019-01-23T13:59:03.710Z,31.60
2019-01-23T14:01:33.500Z,32.13
2019-01-23T14:04:03.436Z,33.07
2019-01-23T14:06:34.760Z,33.97
2019-01-23T14:09:06.459Z,33.97
2019-01-23T14:11:36.434Z,34.90
2019-01-23T14:14:06.292Z,34.77
2019-01-23T14:16:36.092Z,34.13
2019-01-23T14:19:05.908Z,35.50
2019-01-23T14:21:36.580Z,34.30
2019-01-23T14:24:06.606Z,34.40
2019-01-23T14:26:36.516Z,34.83
2019-01-23T14:29:06.911Z,33.43
2019-01-23T14:31:36.923Z,33.43
2019-01-23T14:34:07.790Z,34.30
2019-01-23T14:36:37.604Z,34.17
2019-01-23T14:39:08.001Z,34.53
2019-01-23T14:41:37.745Z,33.30
2019-01-23T14:44:07.627Z,34.73
2019-01-23T14:46:37.464Z,34.07
2019-01-23T14:49:07.217Z,33.57
2019-01-23T14:51:37.032Z,34.20
2019-01-23T14:54:06.849Z,34.20
2019-01-23T14:56:37.623Z,33.30
2019-01-23T14:59:07.420Z,33.07
2019-01-23T15:01:37.232Z,34.90
2019-01-23T15:04:07.971Z,53.20
2019-01-23T15:06:39.468Z,33.83
2019-01-23T15:09:09.446Z,33.73
2019-01-23T15:11:39.188Z,34.33
2019-01-23T15:14:09.191Z,32.70
2019-01-23T15:16:39.187Z,32.63
2019-01-23T15:19:10.413Z,33.80
2019-01-23T15:21:40.619Z,33.73
2019-01-23T15:24:10.614Z,35.03
2019-01-23T15:26:40.369Z,34.83
2019-01-23T15:29:10.858Z,34.37
2019-01-23T15:31:40.583Z,34.53
2019-01-23T15:34:10.321Z,33.93
2019-01-23T15:36:40.079Z,34.23
2019-01-23T15:39:10.407Z,33.00
2019-01-23T15:41:40.227Z,33.20
2019-01-23T15:44:10.105Z,32.13
2019-01-23T15:46:40.401Z,33.93
2019-01-23T15:49:10.207Z,33.23
2019-01-23T15:51:40.123Z,31.27
2019-01-23T15:54:10.444Z,32.93
2019-01-23T15:56:40.255Z,32.83
2019-01-23T15:59:11.129Z,34.07
2019-01-23T16:01:40.853Z,35.73
2019-01-23T16:04:10.855Z,33.30
2019-01-23T16:06:41.273Z,33.27
2019-01-23T16:09:11.036Z,33.50
2019-01-23T16:11:40.899Z,32.23
2019-01-23T16:14:10.708Z,31.37
2019-01-23T16:16:40.623Z,33.57
2019-01-23T16:19:11.262Z,33.53
2019-01-23T16:21:45.570Z,35.77
2019-01-23T16:24:12.558Z,35.43
2019-01-23T16:26:42.414Z,34.13
2019-01-23T16:29:13.727Z,34.30
2019-01-23T16:31:46.969Z,34.77
2019-01-23T16:34:16.788Z,37.03
2019-01-23T16:36:46.607Z,35.33
2019-01-23T16:39:16.494Z,34.20
2019-01-23T16:41:46.541Z,36.13
2019-01-23T16:44:16.266Z,34.57
2019-01-23T16:46:45.988Z,34.63
2019-01-23T16:49:16.041Z,35.50
2019-01-23T16:51:51.355Z,34.87
2019-01-23T16:54:20.163Z,36.00
2019-01-23T16:56:50.188Z,34.83
2019-01-23T16:59:20.012Z,33.93
2019-01-23T17:01:50.913Z,35.37
2019-01-23T17:04:21.496Z,34.43
2019-01-23T17:06:51.245Z,34.07
2019-01-23T17:09:21.035Z,34.70
2019-01-23T17:11:50.900Z,34.17
2019-01-23T17:14:21.625Z,34.23
2019-01-23T17:16:51.449Z,35.20
2019-01-23T17:19:21.309Z,34.50
2019-01-23T17:21:51.236Z,32.70
2019-01-23T17:24:21.028Z,32.93
2019-01-23T17:26:51.058Z,32.27
2019-01-23T17:29:21.419Z,32.80
2019-01-23T17:31:52.054Z,34.20
2019-01-23T17:34:22.128Z,34.13
2019-01-23T17:36:51.920Z,34.67
2019-01-23T17:39:21.753Z,34.77
2019-01-23T17:41:51.626Z,35.93
2019-01-23T17:44:21.467Z,35.67
2019-01-23T17:46:51.566Z,38.47
2019-01-23T17:49:26.526Z,35.53
2019-01-23T17:51:56.349Z,35.77
2019-01-23T17:54:26.198Z,35.43
2019-01-23T17:56:56.253Z,38.77
2019-01-23T17:59:26.220Z,37.23
2019-01-23T18:01:56.375Z,33.13
2019-01-23T18:04:26.535Z,33.83
2019-01-23T18:06:56.390Z,34.00
2019-01-23T18:09:26.237Z,33.43
2019-01-23T18:11:56.271Z,33.63
2019-01-23T18:14:26.193Z,33.83
2019-01-23T18:16:56.212Z,33.07
2019-01-23T18:19:26.015Z,31.87
2019-01-23T18:21:55.807Z,32.23
2019-01-23T18:24:26.830Z,33.40
2019-01-23T18:26:58.093Z,33.70
2019-01-23T18:29:29.543Z,32.80
2019-01-23T18:32:02.466Z,34.57
2019-01-23T18:35:01.008Z,34.03
2019-01-23T18:37:35.524Z,34.73
2019-01-23T18:40:31.318Z,34.77
2019-01-23T18:43:19.294Z,33.80
2019-01-23T18:46:00.576Z,35.10
2019-01-23T18:48:45.835Z,33.17
2019-01-23T18:51:19.640Z,45.53
2019-01-23T18:53:49.479Z,33.67
2019-01-23T18:56:19.278Z,32.57
2019-01-23T18:58:49.176Z,33.43
2019-01-23T19:01:19.060Z,34.83
2019-01-23T19:03:48.913Z,35.73
2019-01-23T19:06:21.247Z,36.50
2019-01-23T19:08:52.698Z,37.90
2019-01-23T19:11:23.872Z,37.20
2019-01-23T19:13:54.151Z,37.20
2019-01-23T19:16:24.288Z,35.87
2019-01-23T19:18:56.101Z,35.97
2019-01-23T19:21:25.913Z,35.37
2019-01-23T19:23:56.793Z,35.10
2019-01-23T19:26:26.629Z,34.23
2019-01-23T19:28:56.470Z,33.30
2019-01-23T19:31:26.351Z,33.13
2019-01-23T19:33:57.225Z,33.53
2019-01-23T19:36:26.963Z,34.10
2019-01-23T19:38:57.527Z,34.20
2019-01-23T19:41:27.631Z,33.53
2019-01-23T19:43:57.427Z,31.87
2019-01-23T19:46:27.343Z,31.33
2019-01-23T19:48:57.146Z,32.17
2019-01-23T19:51:29.030Z,32.37
2019-01-23T19:53:59.066Z,34.00
2019-01-23T19:56:28.925Z,33.13
2019-01-23T19:58:58.735Z,34.43
2019-01-23T20:01:28.547Z,34.30
2019-01-23T20:03:58.707Z,71.60
2019-01-23T20:06:28.845Z,34.80
2019-01-23T20:08:58.838Z,35.00
2019-01-23T20:11:28.695Z,35.17
2019-01-23T20:13:58.602Z,40.93
2019-01-23T20:16:29.193Z,37.53
2019-01-23T20:18:59.799Z,35.93
2019-01-23T20:21:30.000Z,34.23
2019-01-23T20:23:59.811Z,33.93
2019-01-23T20:26:29.732Z,34.40
2019-01-23T20:28:59.543Z,34.07
2019-01-23T20:31:29.406Z,36.00
2019-01-23T20:33:59.223Z,35.07
2019-01-23T20:36:29.185Z,35.00
2019-01-23T20:38:59.075Z,36.80
2019-01-23T20:41:28.903Z,36.27
2019-01-23T20:43:59.017Z,37.27
2019-01-23T20:46:29.083Z,36.90
2019-01-23T20:48:58.877Z,35.67
2019-01-23T20:51:28.734Z,36.80
2019-01-23T20:53:58.708Z,38.57
2019-01-23T20:56:30.494Z,37.23
2019-01-23T20:59:00.315Z,37.33
2019-01-23T21:01:30.274Z,36.93
2019-01-23T21:04:00.180Z,37.17
2019-01-23T21:06:35.740Z,36.20
2019-01-23T21:09:08.818Z,38.30
2019-01-23T21:11:38.917Z,37.37
2019-01-23T21:14:08.591Z,35.80
2019-01-23T21:16:39.482Z,36.50
2019-01-23T21:19:09.344Z,37.50
2019-01-23T21:21:39.166Z,37.27
2019-01-23T21:24:09.080Z,38.13
2019-01-23T21:26:38.928Z,37.17
2019-01-23T21:29:08.764Z,35.30
2019-01-23T21:31:40.227Z,34.57
2019-01-23T21:34:10.546Z,35.93
2019-01-23T21:36:41.082Z,34.97
2019-01-23T21:39:12.025Z,34.77
2019-01-23T21:41:41.830Z,36.77
2019-01-23T21:44:11.995Z,35.37
2019-01-23T21:46:41.997Z,34.90
2019-01-23T21:49:11.920Z,40.40
2019-01-23T21:51:42.626Z,38.67
2019-01-23T21:54:12.681Z,37.87
2019-01-23T21:56:42.563Z,36.60
2019-01-23T21:59:12.546Z,39.10
2019-01-23T22:01:43.943Z,38.30
2019-01-23T22:04:14.501Z,37.17
2019-01-23T22:06:44.359Z,35.93
2019-01-23T22:09:14.212Z,38.10
2019-01-23T22:11:44.008Z,37.23
2019-01-23T22:14:13.879Z,36.83
2019-01-23T22:16:43.682Z,35.93
2019-01-23T22:19:13.471Z,36.83
2019-01-23T22:21:43.286Z,37.77
2019-01-23T22:24:13.101Z,37.97
2019-01-23T22:26:42.940Z,38.20
2019-01-23T22:29:12.750Z,37.80
2019-01-23T22:31:43.386Z,38.07
2019-01-23T22:34:13.383Z,37.00
2019-01-23T22:36:43.349Z,38.20
2019-01-23T22:39:13.250Z,37.50
2019-01-23T22:41:43.036Z,38.33
2019-01-23T22:44:12.870Z,39.13
2019-01-23T22:46:42.795Z,38.43
2019-01-23T22:49:12.598Z,38.13
2019-01-23T22:51:42.383Z,39.23
2019-01-23T22:54:12.224Z,39.60
2019-01-23T22:56:41.931Z,39.03
2019-01-23T22:59:11.968Z,41.47
2019-01-23T23:01:41.778Z,39.63
2019-01-23T23:04:11.498Z,41.83
2019-01-23T23:06:42.439Z,42.07
2019-01-23T23:09:12.201Z,40.70
2019-01-23T23:11:41.863Z,41.17
2019-01-23T23:14:11.640Z,41.10
2019-01-23T23:16:41.501Z,41.20
2019-01-23T23:19:11.314Z,42.57
2019-01-23T23:21:41.033Z,41.63
2019-01-23T23:24:10.786Z,40.87
2019-01-23T23:26:40.563Z,40.17
2019-01-23T23:29:11.303Z,42.20
2019-01-23T23:31:41.100Z,40.40
2019-01-23T23:34:10.880Z,40.80
2019-01-23T23:36:40.658Z,41.73
2019-01-23T23:39:10.464Z,43.10
2019-01-23T23:41:40.256Z,42.07
2019-01-23T23:44:09.959Z,41.37
2019-01-23T23:46:39.728Z,42.53
2019-01-23T23:49:09.566Z,41.60
2019-01-23T23:51:39.375Z,42.60
2019-01-23T23:54:09.137Z,42.00
2019-01-23T23:56:39.004Z,42.90
2019-01-23T23:59:08.810Z,44.20
